DEXEY KMDW-
Flight info
| Callsign | DEXEY |
|---|---|
| Flight time | N/A |
| Altitude | |
| Route | |
| Aircraft | C172/L-VGD/C |
Departure
| Time | 2026-05-05 20:26 |
|---|---|
| Airport | Chicago Midway International Airport (KMDW) |
Arrival
| Time | N/A |
|---|---|
| Airport | - |
| Time | Latitude | Longitude | Altitude | Speed | Heading |
|---|---|---|---|---|---|
| 2026-05-05 20:21 | 41.78114 | -87.75237 | 621 ft | 0 kts | 329° |
| 2026-05-05 20:21 | 41.78114 | -87.75238 | 621 ft | 0 kts | 329° |
| 2026-05-05 20:22 | 41.78114 | -87.75237 | 621 ft | 0 kts | 329° |
| 2026-05-05 20:22 | 41.78131 | -87.75238 | 626 ft | 7 kts | 40° |
| 2026-05-05 20:23 | 41.78137 | -87.75135 | 621 ft | 13 kts | 106° |
| 2026-05-05 20:23 | 41.78080 | -87.75040 | 619 ft | 13 kts | 96° |
| 2026-05-05 20:23 | 41.78094 | -87.74981 | 618 ft | 5 kts | 137° |
| 2026-05-05 20:23 | 41.78069 | -87.74949 | 618 ft | 5 kts | 133° |
| 2026-05-05 20:24 | 41.78050 | -87.74912 | 623 ft | 5 kts | 86° |
| 2026-05-05 20:24 | 41.78078 | -87.74880 | 623 ft | 7 kts | 6° |
| 2026-05-05 20:24 | 41.78129 | -87.74929 | 618 ft | 15 kts | 314° |
| 2026-05-05 20:24 | 41.78296 | -87.75163 | 619 ft | 56 kts | 313° |
| 2026-05-05 20:25 | 41.78640 | -87.75641 | 678 ft | 81 kts | 311° |
| 2026-05-05 20:25 | 41.78991 | -87.76193 | 953 ft | 75 kts | 294° |
| 2026-05-05 20:25 | 41.78690 | -87.76742 | 1022 ft | 106 kts | 189° |
| 2026-05-05 20:25 | 41.78069 | -87.76205 | 1195 ft | 110 kts | 137° |
| 2026-05-05 20:26 | 41.77559 | -87.75459 | 1271 ft | 107 kts | 134° |
| 2026-05-05 20:26 | 41.77051 | -87.74638 | 1198 ft | 121 kts | 129° |
| 2026-05-05 20:26 | 41.76689 | -87.73612 | 1197 ft | 119 kts | 94° |
| 2026-05-05 20:26 | 41.77138 | -87.73062 | 1041 ft | 99 kts | 329° |
| 2026-05-05 20:27 | 41.77388 | -87.73866 | 937 ft | 93 kts | 292° |
| 2026-05-05 20:27 | 41.77833 | -87.74513 | 765 ft | 99 kts | 310° |
| 2026-05-05 20:27 | 41.78285 | -87.75146 | 625 ft | 88 kts | 311° |
| 2026-05-05 20:27 | 41.78691 | -87.75710 | 657 ft | 89 kts | 311° |
| 2026-05-05 20:28 | 41.79109 | -87.76315 | 857 ft | 88 kts | 308° |
| 2026-05-05 20:28 | 41.79268 | -87.77052 | 973 ft | 103 kts | 240° |
| 2026-05-05 20:28 | 41.78562 | -87.77122 | 1019 ft | 122 kts | 139° |
| 2026-05-05 20:28 | 41.77992 | -87.76320 | 1056 ft | 121 kts | 142° |
| 2026-05-05 20:29 | 41.77287 | -87.75813 | 1117 ft | 115 kts | 159° |
| 2026-05-05 20:29 | 41.76792 | -87.74955 | 1153 ft | 125 kts | 108° |
| 2026-05-05 20:29 | 41.76906 | -87.73904 | 1226 ft | 119 kts | 35° |
| 2026-05-05 20:29 | 41.77581 | -87.74213 | 950 ft | 123 kts | 307° |
| 2026-05-05 20:30 | 41.78154 | -87.74970 | 667 ft | 99 kts | 311° |
| 2026-05-05 20:30 | 41.78535 | -87.75501 | 614 ft | 75 kts | 314° |
| 2026-05-05 20:30 | 41.78936 | -87.76085 | 720 ft | 89 kts | 310° |
| 2026-05-05 20:30 | 41.79397 | -87.76632 | 934 ft | 91 kts | 336° |
| 2026-05-05 20:31 | 41.79995 | -87.76902 | 1187 ft | 89 kts | 337° |
| 2026-05-05 20:31 | 41.80595 | -87.77109 | 1449 ft | 94 kts | 10° |
| 2026-05-05 20:31 | 41.81030 | -87.76445 | 1615 ft | 112 kts | 68° |
| 2026-05-05 20:31 | 41.81321 | -87.75415 | 1608 ft | 121 kts | 65° |
| 2026-05-05 20:32 | 41.81635 | -87.74356 | 1609 ft | 122 kts | 65° |
| 2026-05-05 20:32 | 41.81952 | -87.73279 | 1606 ft | 126 kts | 66° |
| 2026-05-05 20:32 | 41.82275 | -87.72194 | 1611 ft | 125 kts | 65° |
| 2026-05-05 20:32 | 41.82602 | -87.71095 | 1601 ft | 127 kts | 65° |
| 2026-05-05 20:33 | 41.82923 | -87.70019 | 1608 ft | 125 kts | 65° |
| 2026-05-05 20:33 | 41.83258 | -87.68943 | 1597 ft | 124 kts | 64° |
| 2026-05-05 20:33 | 41.83585 | -87.67862 | 1596 ft | 125 kts | 66° |
| 2026-05-05 20:33 | 41.83903 | -87.66810 | 1751 ft | 116 kts | 66° |
| 2026-05-05 20:34 | 41.84195 | -87.65832 | 1907 ft | 110 kts | 65° |
| 2026-05-05 20:34 | 41.84487 | -87.64874 | 1989 ft | 115 kts | 66° |
| 2026-05-05 20:34 | 41.84786 | -87.63863 | 2004 ft | 119 kts | 65° |
| 2026-05-05 20:34 | 41.85106 | -87.62817 | 2010 ft | 123 kts | 66° |
| 2026-05-05 20:35 | 41.85442 | -87.61734 | 2005 ft | 128 kts | 66° |
| 2026-05-05 20:35 | 41.85784 | -87.60626 | 2008 ft | 128 kts | 66° |
| 2026-05-05 20:35 | 41.85931 | -87.59452 | 2006 ft | 129 kts | 87° |
| 2026-05-05 20:35 | 41.85976 | -87.58286 | 2004 ft | 123 kts | 85° |
| 2026-05-05 20:36 | 41.86029 | -87.57143 | 1994 ft | 121 kts | 85° |
| 2026-05-05 20:36 | 41.86079 | -87.56029 | 1993 ft | 119 kts | 86° |
| 2026-05-05 20:36 | 41.86127 | -87.54917 | 1992 ft | 119 kts | 85° |
| 2026-05-05 20:36 | 41.86175 | -87.53809 | 1992 ft | 119 kts | 86° |
| 2026-05-05 20:37 | 41.86376 | -87.52772 | 1986 ft | 115 kts | 47° |
| 2026-05-05 20:37 | 41.86827 | -87.52462 | 1986 ft | 110 kts | 1° |
| 2026-05-05 20:37 | 41.87803 | -87.52702 | 1998 ft | 106 kts | 346° |
| 2026-05-05 20:37 | 41.88525 | -87.52903 | 1996 ft | 106 kts | 346° |
| 2026-05-05 20:38 | 41.89240 | -87.53110 | 1994 ft | 105 kts | 346° |
| 2026-05-05 20:38 | 41.89953 | -87.53314 | 1994 ft | 105 kts | 346° |
| 2026-05-05 20:38 | 41.90670 | -87.53522 | 1995 ft | 106 kts | 345° |
| 2026-05-05 20:38 | 41.91392 | -87.53724 | 1996 ft | 106 kts | 346° |
| 2026-05-05 20:39 | 41.92104 | -87.53922 | 1995 ft | 105 kts | 346° |
| 2026-05-05 20:39 | 41.92819 | -87.54121 | 1996 ft | 105 kts | 346° |
| 2026-05-05 20:39 | 41.93535 | -87.54324 | 1993 ft | 105 kts | 345° |
| 2026-05-05 20:39 | 41.94243 | -87.54537 | 1993 ft | 103 kts | 337° |
| 2026-05-05 20:40 | 41.94626 | -87.55277 | 1980 ft | 104 kts | 277° |
| 2026-05-05 20:40 | 41.94675 | -87.56304 | 1811 ft | 115 kts | 276° |
| 2026-05-05 20:40 | 41.94741 | -87.57389 | 1646 ft | 118 kts | 277° |
| 2026-05-05 20:40 | 41.94801 | -87.58491 | 1502 ft | 116 kts | 276° |
| 2026-05-05 20:41 | 41.94859 | -87.59538 | 1499 ft | 110 kts | 275° |
| 2026-05-05 20:41 | 41.94810 | -87.60541 | 1486 ft | 107 kts | 264° |
| 2026-05-05 20:41 | 41.94942 | -87.61467 | 1486 ft | 105 kts | 312° |
| 2026-05-05 20:41 | 41.95636 | -87.61723 | 1496 ft | 108 kts | 358° |
| 2026-05-05 20:42 | 41.96368 | -87.61845 | 1491 ft | 104 kts | 345° |
| 2026-05-05 20:42 | 41.97074 | -87.62043 | 1494 ft | 103 kts | 345° |
| 2026-05-05 20:42 | 41.97784 | -87.62245 | 1487 ft | 104 kts | 346° |
| 2026-05-05 20:42 | 41.98500 | -87.62450 | 1487 ft | 105 kts | 345° |
| 2026-05-05 20:43 | 41.99200 | -87.62699 | 1477 ft | 103 kts | 326° |
| 2026-05-05 20:43 | 41.99455 | -87.63521 | 1483 ft | 101 kts | 265° |
| 2026-05-05 20:43 | 41.99366 | -87.64447 | 1498 ft | 100 kts | 264° |
| 2026-05-05 20:43 | 41.99289 | -87.65315 | 1654 ft | 90 kts | 266° |
| 2026-05-05 20:44 | 41.99232 | -87.65872 | 1761 ft | 89 kts | 265° |
| 2026-05-05 20:44 | 41.99132 | -87.66954 | 1952 ft | 87 kts | 266° |
| 2026-05-05 20:44 | 41.99042 | -87.67816 | 2001 ft | 100 kts | 265° |
| 2026-05-05 20:44 | 41.98983 | -87.68459 | 2013 ft | 105 kts | 266° |
| 2026-05-05 20:45 | 41.98811 | -87.70448 | 2011 ft | 109 kts | 265° |
| 2026-05-05 20:45 | 41.98724 | -87.71451 | 2007 ft | 109 kts | 265° |
| 2026-05-05 20:45 | 41.98638 | -87.72467 | 2007 ft | 111 kts | 266° |
| 2026-05-05 20:46 | 41.98547 | -87.73506 | 2005 ft | 112 kts | 265° |
| 2026-05-05 20:46 | 41.98459 | -87.74535 | 2015 ft | 110 kts | 269° |
| 2026-05-05 20:46 | 41.98498 | -87.75554 | 2002 ft | 107 kts | 276° |
| 2026-05-05 20:46 | 41.98562 | -87.76548 | 2005 ft | 108 kts | 276° |
| 2026-05-05 20:47 | 41.98628 | -87.77563 | 2005 ft | 111 kts | 275° |
| 2026-05-05 20:47 | 41.98696 | -87.78593 | 2001 ft | 110 kts | 275° |
| 2026-05-05 20:47 | 41.98734 | -87.79609 | 1993 ft | 107 kts | 275° |
| 2026-05-05 20:47 | 41.98744 | -87.80495 | 2023 ft | 90 kts | 272° |
| 2026-05-05 20:48 | 41.98747 | -87.81366 | 1956 ft | 95 kts | 274° |
| 2026-05-05 20:48 | 41.98749 | -87.82267 | 1874 ft | 98 kts | 270° |
| 2026-05-05 20:48 | 41.98724 | -87.83187 | 1786 ft | 101 kts | 270° |
| 2026-05-05 20:48 | 41.98788 | -87.84142 | 1551 ft | 106 kts | 283° |
| 2026-05-05 20:49 | 41.98844 | -87.85119 | 1299 ft | 104 kts | 266° |
| 2026-05-05 20:49 | 41.98828 | -87.86064 | 1168 ft | 100 kts | 271° |
| 2026-05-05 20:49 | 41.98830 | -87.86985 | 1060 ft | 98 kts | 271° |
| 2026-05-05 20:49 | 41.98832 | -87.87944 | 876 ft | 105 kts | 269° |
| 2026-05-05 20:50 | 41.98826 | -87.88900 | 745 ft | 101 kts | 272° |
| 2026-05-05 20:50 | 41.98832 | -87.89777 | 661 ft | 85 kts | 272° |
| 2026-05-05 20:50 | 41.98835 | -87.90505 | 663 ft | 83 kts | 269° |
| 2026-05-05 20:50 | 41.98825 | -87.91358 | 771 ft | 93 kts | 271° |
| 2026-05-05 20:51 | 41.98804 | -87.92210 | 994 ft | 90 kts | 270° |
| 2026-05-05 20:51 | 41.98778 | -87.93023 | 1242 ft | 85 kts | 269° |
| 2026-05-05 20:51 | 41.98762 | -87.93820 | 1477 ft | 85 kts | 270° |
| 2026-05-05 20:51 | 41.98748 | -87.94655 | 1496 ft | 93 kts | 271° |
| 2026-05-05 20:52 | 41.98924 | -87.95475 | 1581 ft | 97 kts | 308° |
| 2026-05-05 20:52 | 41.99541 | -87.95852 | 1616 ft | 109 kts | 1° |
| 2026-05-05 20:52 | 42.00284 | -87.95538 | 1617 ft | 116 kts | 12° |
| 2026-05-05 20:52 | 42.01060 | -87.95170 | 1687 ft | 117 kts | 19° |
| 2026-05-05 20:53 | 42.01671 | -87.94376 | 1597 ft | 128 kts | 72° |
| 2026-05-05 20:53 | 42.01664 | -87.93105 | 1437 ft | 138 kts | 94° |
| 2026-05-05 20:53 | 42.01619 | -87.91846 | 1362 ft | 134 kts | 86° |
| 2026-05-05 20:53 | 42.01967 | -87.90731 | 1235 ft | 129 kts | 56° |
| 2026-05-05 20:54 | 42.02198 | -87.89588 | 1179 ft | 127 kts | 92° |
| 2026-05-05 20:54 | 42.02155 | -87.88436 | 1182 ft | 118 kts | 95° |
| 2026-05-05 20:54 | 42.02098 | -87.87362 | 1185 ft | 119 kts | 94° |
| 2026-05-05 20:54 | 42.01764 | -87.86394 | 1184 ft | 115 kts | 143° |
| 2026-05-05 20:55 | 42.01046 | -87.86067 | 1138 ft | 109 kts | 191° |
| 2026-05-05 20:55 | 42.00393 | -87.86444 | 1099 ft | 104 kts | 239° |
| 2026-05-05 20:55 | 42.00300 | -87.87411 | 980 ft | 108 kts | 269° |
| 2026-05-05 20:55 | 42.00291 | -87.88385 | 910 ft | 105 kts | 272° |
| 2026-05-05 20:56 | 42.00283 | -87.89365 | 816 ft | 106 kts | 271° |
| 2026-05-05 20:56 | 42.00289 | -87.90341 | 714 ft | 94 kts | 270° |